
Distance (Route):
Temperature : -41.6°C
Humidity : 2.3%
Pressure : 0hPa| Receiver | Frames | First received | Last received |
|---|---|---|---|
| DB0UT-7 | 20 | 2026-09-04 01:05:58 | 2026-09-04 01:25:02 |
| Receiver | Date | Latitude | Longitude | Direction | Speed | Altitude | Climb | Temperature | Humidity | Pressure | Voltage | Killtimer | Uptime | BKT | XDATA |
|---|---|---|---|---|---|---|---|---|---|---|---|---|---|---|---|
| DB0UT-7 | 2026-09-04 01:25:02 | 50.39599 | -3.70422 | 94° | 60km/h | 32538m | -20.7m/s | -41.6°C | 2.3% | 0hPa | 2.6V | 00:00:00 | 00:00:00 | 00:00:00 | |
| DB0UT-7 | 2026-09-04 01:21:40 | 50.40126 | -3.71020 | 188° | 7km/h | 37852m | -16.4m/s | -30.0°C | 1.3% | 0hPa | 2.6V | 00:00:00 | 00:00:00 | 00:00:00 | |
| DB0UT-7 | 2026-09-04 01:21:07 | 50.40195 | -3.71007 | 199° | 18km/h | 37718m | 4.5m/s | -30.3°C | 1.3% | 0hPa | 2.6V | 00:00:00 | 02:36:20 | 08:30:00 | |
| DB0UT-7 | 2026-09-04 01:19:54 | 50.40008 | -3.70658 | 260° | 20km/h | 37356m | 5.2m/s | -29.8°C | 1.3% | 0hPa | 2.5V | 00:00:00 | 00:00:00 | 00:00:00 | |
| DB0UT-7 | 2026-09-04 01:19:24 | 50.40081 | -3.70459 | 215° | 26km/h | 37209m | 4.8m/s | -29.6°C | 1.3% | 0hPa | 2.5V | 00:00:00 | 02:34:37 | 00:00:00 | |
| DB0UT-7 | 2026-09-04 01:18:13 | 50.40590 | -3.70217 | 150° | 22km/h | 36830m | 5.3m/s | -30.1°C | 1.3% | 0hPa | 2.5V | 00:00:00 | 00:00:00 | 00:00:00 | |
| DB0UT-7 | 2026-09-04 01:17:43 | 50.40739 | -3.70302 | 201° | 35km/h | 36674m | 5.3m/s | -30.2°C | 1.3% | 0hPa | 2.5V | 00:00:00 | 02:32:56 | 00:00:00 | |
| DB0UT-7 | 2026-09-04 01:16:28 | 50.40991 | -3.70739 | 121° | 38km/h | 36329m | 3.1m/s | -31.1°C | 1.3% | 0hPa | 2.5V | 00:00:00 | 00:00:00 | 00:00:00 | |
| DB0UT-7 | 2026-09-04 01:15:58 | 50.41146 | -3.70935 | 147° | 31km/h | 36195m | 5.5m/s | -31.7°C | 1.4% | 0hPa | 2.5V | 00:00:00 | 02:31:11 | 00:00:00 | |
| DB0UT-7 | 2026-09-04 01:14:47 | 50.41463 | -3.71548 | 88° | 27km/h | 35851m | 4.0m/s | -32.6°C | 1.5% | 0hPa | 2.5V | 00:00:00 | 00:00:00 | 00:00:00 | |
| DB0UT-7 | 2026-09-04 01:14:17 | 50.41426 | -3.71725 | 81° | 29km/h | 35709m | 1.8m/s | -32.4°C | 1.5% | 0hPa | 2.5V | 00:00:00 | 02:29:30 | 00:00:00 | |
| DB0UT-7 | 2026-09-04 01:13:04 | 50.41458 | -3.72215 | 344° | 37km/h | 35348m | 4.5m/s | -31.8°C | 1.4% | 0hPa | 2.5V | 00:00:00 | 00:00:00 | 08:30:00 | |
| DB0UT-7 | 2026-09-04 01:12:34 | 50.41543 | -3.72536 | 35° | 29km/h | 35196m | 5.0m/s | -32.0°C | 1.4% | 0hPa | 0V | 00:00:00 | 02:27:47 | 00:00:00 | |
| DB0UT-7 | 2026-09-04 01:11:21 | 50.41579 | -3.73180 | 97° | 38km/h | 34835m | 6.8m/s | 0°C | 0% | 0hPa | 0V | 00:00:00 | 00:00:00 | 00:00:00 | |
| DB0UT-7 | 2026-09-04 01:10:51 | 50.41521 | -3.73372 | 141° | 29km/h | 34685m | 4.9m/s | 0°C | 0% | 0hPa | 0V | 00:00:00 | 02:26:04 | 00:00:00 | |
| DB0UT-7 | 2026-09-04 01:09:38 | 50.41488 | -3.73668 | 78° | 20km/h | 34313m | 5.4m/s | 0°C | 0% | 0hPa | 0V | 00:00:00 | 00:00:00 | 00:00:00 | |
| DB0UT-7 | 2026-09-04 01:07:56 | 50.41800 | -3.73927 | 115° | 27km/h | 33754m | 5.2m/s | 0°C | 0% | 0hPa | 0V | 00:00:00 | 00:00:00 | 00:00:00 | |
| DB0UT-7 | 2026-09-04 01:07:26 | 50.41941 | -3.74041 | 151° | 24km/h | 33587m | 5.1m/s | 0°C | 0% | 0hPa | 0V | 00:00:00 | 02:22:39 | 00:00:00 | |
| DB0UT-7 | 2026-09-04 01:06:28 | 50.42402 | -3.74093 | 125° | 42km/h | 33273m | 6.6m/s | 0°C | 0% | 0hPa | 0V | 00:00:00 | 00:00:00 | 00:00:00 | |
| DB0UT-7 | 2026-09-04 01:05:58 | 50.42656 | -3.74322 | 132° | 64km/h | 33104m | 5.6m/s | 0°C | 0% | 0hPa | 0V | 00:00:00 | 02:21:11 | 00:00:00 |